sensor_id;sensor_type;location;lat;lon;timestamp;temperature;humidity
79356;SHT31;68825;51.978;5.654;2023-04-25T00:01:12;8.9;71.3
79356;SHT31;68825;51.978;5.654;2023-04-25T00:03:44;8.9;70.9
79356;SHT31;68825;51.978;5.654;2023-04-25T00:06:16;8.9;70.4
79356;SHT31;68825;51.978;5.654;2023-04-25T00:08:45;9.0;70.4
79356;SHT31;68825;51.978;5.654;2023-04-25T00:11:14;9.0;70.1
79356;SHT31;68825;51.978;5.654;2023-04-25T00:13:44;9.0;69.8
79356;SHT31;68825;51.978;5.654;2023-04-25T00:16:15;9.0;69.7
79356;SHT31;68825;51.978;5.654;2023-04-25T00:18:43;9.0;70.0
79356;SHT31;68825;51.978;5.654;2023-04-25T00:21:18;9.0;69.2
79356;SHT31;68825;51.978;5.654;2023-04-25T00:23:47;9.0;69.3
79356;SHT31;68825;51.978;5.654;2023-04-25T00:26:16;9.0;69.1
79356;SHT31;68825;51.978;5.654;2023-04-25T00:28:45;9.1;69.2
79356;SHT31;68825;51.978;5.654;2023-04-25T00:31:14;9.1;69.3
79356;SHT31;68825;51.978;5.654;2023-04-25T00:33:43;9.0;69.4
79356;SHT31;68825;51.978;5.654;2023-04-25T00:36:11;9.0;69.2
79356;SHT31;68825;51.978;5.654;2023-04-25T00:38:40;9.0;69.1
79356;SHT31;68825;51.978;5.654;2023-04-25T00:41:08;9.0;68.9
79356;SHT31;68825;51.978;5.654;2023-04-25T00:43:38;9.0;69.1
79356;SHT31;68825;51.978;5.654;2023-04-25T00:46:08;8.9;69.3
79356;SHT31;68825;51.978;5.654;2023-04-25T00:48:36;8.9;69.3
79356;SHT31;68825;51.978;5.654;2023-04-25T00:51:05;8.9;69.4
79356;SHT31;68825;51.978;5.654;2023-04-25T00:53:35;8.9;69.3
79356;SHT31;68825;51.978;5.654;2023-04-25T00:56:04;8.9;69.4
79356;SHT31;68825;51.978;5.654;2023-04-25T00:58:34;8.8;69.0
79356;SHT31;68825;51.978;5.654;2023-04-25T01:01:03;8.8;68.9
79356;SHT31;68825;51.978;5.654;2023-04-25T01:03:33;8.8;68.7
79356;SHT31;68825;51.978;5.654;2023-04-25T01:06:09;8.8;69.0
79356;SHT31;68825;51.978;5.654;2023-04-25T01:08:39;8.8;68.5
79356;SHT31;68825;51.978;5.654;2023-04-25T01:11:07;8.8;68.3
79356;SHT31;68825;51.978;5.654;2023-04-25T01:13:36;8.7;68.6
79356;SHT31;68825;51.978;5.654;2023-04-25T01:16:05;8.7;68.8
79356;SHT31;68825;51.978;5.654;2023-04-25T01:18:34;8.7;68.9
79356;SHT31;68825;51.978;5.654;2023-04-25T01:21:07;8.7;69.1
79356;SHT31;68825;51.978;5.654;2023-04-25T01:23:37;8.7;68.8
79356;SHT31;68825;51.978;5.654;2023-04-25T01:26:09;8.7;68.5
79356;SHT31;68825;51.978;5.654;2023-04-25T01:28:39;8.7;68.9
79356;SHT31;68825;51.978;5.654;2023-04-25T01:31:09;8.7;68.4
79356;SHT31;68825;51.978;5.654;2023-04-25T01:33:40;8.7;68.5
79356;SHT31;68825;51.978;5.654;2023-04-25T01:36:09;8.8;68.4
79356;SHT31;68825;51.978;5.654;2023-04-25T01:38:38;8.8;68.0
79356;SHT31;68825;51.978;5.654;2023-04-25T01:41:07;8.8;68.2
79356;SHT31;68825;51.978;5.654;2023-04-25T01:43:36;8.8;68.2
79356;SHT31;68825;51.978;5.654;2023-04-25T01:46:04;8.8;68.1
79356;SHT31;68825;51.978;5.654;2023-04-25T01:48:38;8.8;68.5
79356;SHT31;68825;51.978;5.654;2023-04-25T01:51:06;8.8;67.8
79356;SHT31;68825;51.978;5.654;2023-04-25T01:53:35;8.9;67.6
79356;SHT31;68825;51.978;5.654;2023-04-25T01:56:05;8.9;67.4
79356;SHT31;68825;51.978;5.654;2023-04-25T01:58:34;8.9;67.5
79356;SHT31;68825;51.978;5.654;2023-04-25T02:01:03;8.9;67.0
79356;SHT31;68825;51.978;5.654;2023-04-25T02:03:32;8.8;67.0
79356;SHT31;68825;51.978;5.654;2023-04-25T02:06:00;8.8;67.0
79356;SHT31;68825;51.978;5.654;2023-04-25T02:08:29;8.8;66.6
79356;SHT31;68825;51.978;5.654;2023-04-25T02:11:00;8.8;66.7
79356;SHT31;68825;51.978;5.654;2023-04-25T02:13:31;8.8;66.5
79356;SHT31;68825;51.978;5.654;2023-04-25T02:15:59;8.8;66.5
79356;SHT31;68825;51.978;5.654;2023-04-25T02:18:28;8.8;66.5
79356;SHT31;68825;51.978;5.654;2023-04-25T02:20:58;8.7;66.4
79356;SHT31;68825;51.978;5.654;2023-04-25T02:23:30;8.7;66.4
79356;SHT31;68825;51.978;5.654;2023-04-25T02:25:59;8.7;66.1
79356;SHT31;68825;51.978;5.654;2023-04-25T02:28:27;8.7;65.8
79356;SHT31;68825;51.978;5.654;2023-04-25T02:30:56;8.6;65.8
79356;SHT31;68825;51.978;5.654;2023-04-25T02:33:25;8.6;66.0
79356;SHT31;68825;51.978;5.654;2023-04-25T02:35:53;8.5;65.9
79356;SHT31;68825;51.978;5.654;2023-04-25T02:38:22;8.5;66.0
79356;SHT31;68825;51.978;5.654;2023-04-25T02:40:51;8.4;66.3
79356;SHT31;68825;51.978;5.654;2023-04-25T02:43:19;8.4;66.9
79356;SHT31;68825;51.978;5.654;2023-04-25T02:45:50;8.4;67.8
79356;SHT31;68825;51.978;5.654;2023-04-25T02:48:19;8.4;67.4
79356;SHT31;68825;51.978;5.654;2023-04-25T02:50:47;8.4;67.7
79356;SHT31;68825;51.978;5.654;2023-04-25T02:53:16;8.3;67.2
79356;SHT31;68825;51.978;5.654;2023-04-25T02:55:44;8.3;67.1
79356;SHT31;68825;51.978;5.654;2023-04-25T02:58:13;8.3;66.8
79356;SHT31;68825;51.978;5.654;2023-04-25T03:00:42;8.3;66.1
79356;SHT31;68825;51.978;5.654;2023-04-25T03:03:11;8.3;66.2
79356;SHT31;68825;51.978;5.654;2023-04-25T03:05:40;8.3;66.5
79356;SHT31;68825;51.978;5.654;2023-04-25T03:08:08;8.2;66.6
79356;SHT31;68825;51.978;5.654;2023-04-25T03:10:37;8.2;66.3
79356;SHT31;68825;51.978;5.654;2023-04-25T03:13:06;8.2;66.7
79356;SHT31;68825;51.978;5.654;2023-04-25T03:15:34;8.2;66.4
79356;SHT31;68825;51.978;5.654;2023-04-25T03:18:03;8.1;66.7
79356;SHT31;68825;51.978;5.654;2023-04-25T03:20:32;8.1;67.0
79356;SHT31;68825;51.978;5.654;2023-04-25T03:23:00;8.1;66.8
79356;SHT31;68825;51.978;5.654;2023-04-25T03:25:29;8.1;67.6
79356;SHT31;68825;51.978;5.654;2023-04-25T03:27:58;8.1;67.9
79356;SHT31;68825;51.978;5.654;2023-04-25T03:30:27;8.1;68.3
79356;SHT31;68825;51.978;5.654;2023-04-25T03:32:55;8.1;68.0
79356;SHT31;68825;51.978;5.654;2023-04-25T03:35:24;8.1;67.8
79356;SHT31;68825;51.978;5.654;2023-04-25T03:37:52;8.0;68.0
79356;SHT31;68825;51.978;5.654;2023-04-25T03:40:21;8.0;68.0
79356;SHT31;68825;51.978;5.654;2023-04-25T03:42:50;8.0;68.1
79356;SHT31;68825;51.978;5.654;2023-04-25T03:45:18;8.0;68.2
79356;SHT31;68825;51.978;5.654;2023-04-25T03:47:47;8.0;68.7
79356;SHT31;68825;51.978;5.654;2023-04-25T03:50:16;8.0;68.4
79356;SHT31;68825;51.978;5.654;2023-04-25T03:52:44;8.0;68.1
79356;SHT31;68825;51.978;5.654;2023-04-25T03:55:13;8.0;68.1
79356;SHT31;68825;51.978;5.654;2023-04-25T03:57:42;8.0;68.4
79356;SHT31;68825;51.978;5.654;2023-04-25T04:00:11;8.0;68.3
79356;SHT31;68825;51.978;5.654;2023-04-25T04:02:40;8.0;68.5
79356;SHT31;68825;51.978;5.654;2023-04-25T04:05:11;7.9;68.2
79356;SHT31;68825;51.978;5.654;2023-04-25T04:07:39;7.9;68.6
79356;SHT31;68825;51.978;5.654;2023-04-25T04:10:12;7.9;68.5
79356;SHT31;68825;51.978;5.654;2023-04-25T04:12:41;7.9;68.8
79356;SHT31;68825;51.978;5.654;2023-04-25T04:15:10;7.9;69.6
79356;SHT31;68825;51.978;5.654;2023-04-25T04:17:39;7.9;68.5
79356;SHT31;68825;51.978;5.654;2023-04-25T04:20:08;7.9;68.8
79356;SHT31;68825;51.978;5.654;2023-04-25T04:22:37;7.9;69.3
79356;SHT31;68825;51.978;5.654;2023-04-25T04:25:06;8.0;69.1
79356;SHT31;68825;51.978;5.654;2023-04-25T04:27:36;8.0;69.0
79356;SHT31;68825;51.978;5.654;2023-04-25T04:30:06;8.0;68.6
79356;SHT31;68825;51.978;5.654;2023-04-25T04:32:36;8.0;68.3
79356;SHT31;68825;51.978;5.654;2023-04-25T04:35:05;8.0;68.1
79356;SHT31;68825;51.978;5.654;2023-04-25T04:37:35;8.0;67.7
79356;SHT31;68825;51.978;5.654;2023-04-25T04:40:05;8.0;67.9
79356;SHT31;68825;51.978;5.654;2023-04-25T04:42:33;8.0;67.8
79356;SHT31;68825;51.978;5.654;2023-04-25T04:45:02;8.0;67.7
79356;SHT31;68825;51.978;5.654;2023-04-25T04:47:31;8.0;67.7
79356;SHT31;68825;51.978;5.654;2023-04-25T04:50:00;8.0;67.7
79356;SHT31;68825;51.978;5.654;2023-04-25T04:52:29;8.0;67.6
79356;SHT31;68825;51.978;5.654;2023-04-25T04:54:57;8.0;68.2
79356;SHT31;68825;51.978;5.654;2023-04-25T04:57:26;8.0;69.2
79356;SHT31;68825;51.978;5.654;2023-04-25T04:59:55;8.0;67.7
79356;SHT31;68825;51.978;5.654;2023-04-25T05:02:24;8.0;67.8
79356;SHT31;68825;51.978;5.654;2023-04-25T05:04:52;8.0;68.1
79356;SHT31;68825;51.978;5.654;2023-04-25T05:07:21;8.0;67.5
79356;SHT31;68825;51.978;5.654;2023-04-25T05:09:50;8.1;68.1
79356;SHT31;68825;51.978;5.654;2023-04-25T05:12:18;8.1;67.7
79356;SHT31;68825;51.978;5.654;2023-04-25T05:14:47;8.1;68.1
79356;SHT31;68825;51.978;5.654;2023-04-25T05:17:17;8.1;67.8
79356;SHT31;68825;51.978;5.654;2023-04-25T05:19:46;8.1;68.1
79356;SHT31;68825;51.978;5.654;2023-04-25T05:22:15;8.1;68.0
79356;SHT31;68825;51.978;5.654;2023-04-25T05:24:43;8.1;67.7
79356;SHT31;68825;51.978;5.654;2023-04-25T05:27:12;8.1;67.5
79356;SHT31;68825;51.978;5.654;2023-04-25T05:29:41;8.2;67.7
79356;SHT31;68825;51.978;5.654;2023-04-25T05:32:09;8.2;67.7
79356;SHT31;68825;51.978;5.654;2023-04-25T05:34:38;8.2;67.2
79356;SHT31;68825;51.978;5.654;2023-04-25T05:37:08;8.2;67.6
79356;SHT31;68825;51.978;5.654;2023-04-25T05:39:37;8.2;67.9
79356;SHT31;68825;51.978;5.654;2023-04-25T05:42:05;8.2;67.9
79356;SHT31;68825;51.978;5.654;2023-04-25T05:44:34;8.2;67.2
79356;SHT31;68825;51.978;5.654;2023-04-25T05:47:03;8.3;66.3
79356;SHT31;68825;51.978;5.654;2023-04-25T05:49:33;8.3;66.6
79356;SHT31;68825;51.978;5.654;2023-04-25T05:52:02;8.3;66.6
79356;SHT31;68825;51.978;5.654;2023-04-25T05:54:31;8.3;65.7
79356;SHT31;68825;51.978;5.654;2023-04-25T05:56:59;8.3;66.7
79356;SHT31;68825;51.978;5.654;2023-04-25T05:59:29;8.3;66.6
79356;SHT31;68825;51.978;5.654;2023-04-25T06:01:57;8.3;66.3
79356;SHT31;68825;51.978;5.654;2023-04-25T06:04:29;8.3;65.7
79356;SHT31;68825;51.978;5.654;2023-04-25T06:06:59;8.3;65.1
79356;SHT31;68825;51.978;5.654;2023-04-25T06:09:28;8.4;65.7
79356;SHT31;68825;51.978;5.654;2023-04-25T06:11:58;8.4;65.5
79356;SHT31;68825;51.978;5.654;2023-04-25T06:14:27;8.4;66.0
79356;SHT31;68825;51.978;5.654;2023-04-25T06:16:56;8.4;66.2
79356;SHT31;68825;51.978;5.654;2023-04-25T06:19:25;8.5;65.8
79356;SHT31;68825;51.978;5.654;2023-04-25T06:21:54;8.5;65.7
79356;SHT31;68825;51.978;5.654;2023-04-25T06:24:22;8.6;65.4
79356;SHT31;68825;51.978;5.654;2023-04-25T06:26:51;8.6;64.8
79356;SHT31;68825;51.978;5.654;2023-04-25T06:29:20;8.6;65.5
79356;SHT31;68825;51.978;5.654;2023-04-25T06:31:49;8.7;66.2
79356;SHT31;68825;51.978;5.654;2023-04-25T06:34:17;8.7;65.8
79356;SHT31;68825;51.978;5.654;2023-04-25T06:36:48;8.7;64.9
79356;SHT31;68825;51.978;5.654;2023-04-25T06:39:18;8.8;64.2
79356;SHT31;68825;51.978;5.654;2023-04-25T06:41:49;8.8;64.3
79356;SHT31;68825;51.978;5.654;2023-04-25T06:44:18;8.8;64.4
79356;SHT31;68825;51.978;5.654;2023-04-25T06:46:47;8.8;64.9
79356;SHT31;68825;51.978;5.654;2023-04-25T06:49:16;8.8;64.6
79356;SHT31;68825;51.978;5.654;2023-04-25T06:51:45;8.9;65.2
79356;SHT31;68825;51.978;5.654;2023-04-25T06:54:13;8.9;64.0
79356;SHT31;68825;51.978;5.654;2023-04-25T06:56:45;8.9;64.1
79356;SHT31;68825;51.978;5.654;2023-04-25T06:59:14;9.0;63.6
79356;SHT31;68825;51.978;5.654;2023-04-25T07:01:42;9.0;63.2
79356;SHT31;68825;51.978;5.654;2023-04-25T07:04:11;9.0;64.3
79356;SHT31;68825;51.978;5.654;2023-04-25T07:06:40;9.0;63.4
79356;SHT31;68825;51.978;5.654;2023-04-25T07:09:12;9.1;62.6
79356;SHT31;68825;51.978;5.654;2023-04-25T07:11:41;9.1;63.5
79356;SHT31;68825;51.978;5.654;2023-04-25T07:14:11;9.1;62.2
79356;SHT31;68825;51.978;5.654;2023-04-25T07:16:39;9.2;61.6
79356;SHT31;68825;51.978;5.654;2023-04-25T07:19:08;9.2;62.7
79356;SHT31;68825;51.978;5.654;2023-04-25T07:21:36;9.3;61.3
79356;SHT31;68825;51.978;5.654;2023-04-25T07:24:06;9.3;61.8
79356;SHT31;68825;51.978;5.654;2023-04-25T07:26:35;9.4;60.2
79356;SHT31;68825;51.978;5.654;2023-04-25T07:29:05;9.4;62.8
79356;SHT31;68825;51.978;5.654;2023-04-25T07:31:34;9.5;60.1
79356;SHT31;68825;51.978;5.654;2023-04-25T07:34:02;9.5;59.9
79356;SHT31;68825;51.978;5.654;2023-04-25T07:36:31;9.6;60.8
79356;SHT31;68825;51.978;5.654;2023-04-25T07:39:00;9.6;60.4
79356;SHT31;68825;51.978;5.654;2023-04-25T07:41:29;9.6;61.8
79356;SHT31;68825;51.978;5.654;2023-04-25T07:43:58;9.7;61.0
79356;SHT31;68825;51.978;5.654;2023-04-25T07:46:26;9.7;61.2
79356;SHT31;68825;51.978;5.654;2023-04-25T07:48:56;9.8;60.7
79356;SHT31;68825;51.978;5.654;2023-04-25T07:51:26;9.8;60.5
79356;SHT31;68825;51.978;5.654;2023-04-25T07:53:55;9.9;60.3
79356;SHT31;68825;51.978;5.654;2023-04-25T07:56:23;9.9;61.6
79356;SHT31;68825;51.978;5.654;2023-04-25T07:58:52;9.9;59.3
79356;SHT31;68825;51.978;5.654;2023-04-25T08:01:21;9.9;59.7
79356;SHT31;68825;51.978;5.654;2023-04-25T08:03:49;9.9;59.9
79356;SHT31;68825;51.978;5.654;2023-04-25T08:06:18;10.0;60.2
79356;SHT31;68825;51.978;5.654;2023-04-25T08:08:47;10.0;60.2
79356;SHT31;68825;51.978;5.654;2023-04-25T08:11:15;10.1;60.3
79356;SHT31;68825;51.978;5.654;2023-04-25T08:13:44;10.2;57.6
79356;SHT31;68825;51.978;5.654;2023-04-25T08:16:12;10.2;56.4
79356;SHT31;68825;51.978;5.654;2023-04-25T08:18:42;10.3;56.8
79356;SHT31;68825;51.978;5.654;2023-04-25T08:21:12;10.3;54.9
79356;SHT31;68825;51.978;5.654;2023-04-25T08:23:41;10.3;56.2
79356;SHT31;68825;51.978;5.654;2023-04-25T08:26:10;10.4;55.7
79356;SHT31;68825;51.978;5.654;2023-04-25T08:28:39;10.4;55.1
79356;SHT31;68825;51.978;5.654;2023-04-25T08:31:07;10.4;56.1
79356;SHT31;68825;51.978;5.654;2023-04-25T08:33:38;10.4;55.3
79356;SHT31;68825;51.978;5.654;2023-04-25T08:36:07;10.5;55.1
79356;SHT31;68825;51.978;5.654;2023-04-25T08:38:36;10.5;55.1
79356;SHT31;68825;51.978;5.654;2023-04-25T08:41:08;10.5;54.2
79356;SHT31;68825;51.978;5.654;2023-04-25T08:43:42;10.6;53.7
79356;SHT31;68825;51.978;5.654;2023-04-25T08:46:12;10.6;53.4
79356;SHT31;68825;51.978;5.654;2023-04-25T08:48:42;10.6;52.7
79356;SHT31;68825;51.978;5.654;2023-04-25T08:51:17;10.6;52.3
79356;SHT31;68825;51.978;5.654;2023-04-25T08:53:51;10.6;51.2
79356;SHT31;68825;51.978;5.654;2023-04-25T08:56:20;10.6;51.2
79356;SHT31;68825;51.978;5.654;2023-04-25T08:58:49;10.6;51.5
79356;SHT31;68825;51.978;5.654;2023-04-25T09:01:19;10.7;50.9
79356;SHT31;68825;51.978;5.654;2023-04-25T09:03:48;10.7;50.2
79356;SHT31;68825;51.978;5.654;2023-04-25T09:06:17;10.7;51.6
79356;SHT31;68825;51.978;5.654;2023-04-25T09:08:50;10.6;54.8
79356;SHT31;68825;51.978;5.654;2023-04-25T09:11:19;10.3;56.2
79356;SHT31;68825;51.978;5.654;2023-04-25T09:13:49;10.0;55.3
79356;SHT31;68825;51.978;5.654;2023-04-25T09:16:17;9.8;53.2
79356;SHT31;68825;51.978;5.654;2023-04-25T09:18:48;9.7;55.7
79356;SHT31;68825;51.978;5.654;2023-04-25T09:21:17;9.6;56.1
79356;SHT31;68825;51.978;5.654;2023-04-25T09:23:50;9.6;55.9
79356;SHT31;68825;51.978;5.654;2023-04-25T09:26:20;9.6;58.5
79356;SHT31;68825;51.978;5.654;2023-04-25T09:29:04;9.6;57.7
79356;SHT31;68825;51.978;5.654;2023-04-25T09:31:33;9.7;57.0
79356;SHT31;68825;51.978;5.654;2023-04-25T09:34:02;9.8;56.3
79356;SHT31;68825;51.978;5.654;2023-04-25T09:36:31;9.9;55.2
79356;SHT31;68825;51.978;5.654;2023-04-25T09:39:02;10.0;53.0
79356;SHT31;68825;51.978;5.654;2023-04-25T09:41:41;10.0;51.1
79356;SHT31;68825;51.978;5.654;2023-04-25T09:44:12;10.1;49.2
79356;SHT31;68825;51.978;5.654;2023-04-25T09:46:41;10.2;50.1
79356;SHT31;68825;51.978;5.654;2023-04-25T09:49:10;10.2;49.4
79356;SHT31;68825;51.978;5.654;2023-04-25T09:51:38;10.3;50.1
79356;SHT31;68825;51.978;5.654;2023-04-25T09:54:07;10.4;48.4
79356;SHT31;68825;51.978;5.654;2023-04-25T09:56:36;10.5;50.3
79356;SHT31;68825;51.978;5.654;2023-04-25T09:59:05;10.6;49.4
79356;SHT31;68825;51.978;5.654;2023-04-25T10:01:37;10.8;49.6
79356;SHT31;68825;51.978;5.654;2023-04-25T10:04:10;10.9;49.6
79356;SHT31;68825;51.978;5.654;2023-04-25T10:06:42;10.9;48.4
79356;SHT31;68825;51.978;5.654;2023-04-25T10:09:14;11.0;49.4
79356;SHT31;68825;51.978;5.654;2023-04-25T10:11:45;11.0;49.2
79356;SHT31;68825;51.978;5.654;2023-04-25T10:14:16;11.0;48.3
79356;SHT31;68825;51.978;5.654;2023-04-25T10:16:45;11.0;47.5
79356;SHT31;68825;51.978;5.654;2023-04-25T10:19:16;11.0;46.4
79356;SHT31;68825;51.978;5.654;2023-04-25T10:21:50;11.0;47.0
79356;SHT31;68825;51.978;5.654;2023-04-25T10:24:20;11.0;47.4
79356;SHT31;68825;51.978;5.654;2023-04-25T10:26:50;11.0;50.6
79356;SHT31;68825;51.978;5.654;2023-04-25T10:29:28;11.0;51.0
79356;SHT31;68825;51.978;5.654;2023-04-25T10:31:57;11.0;49.3
79356;SHT31;68825;51.978;5.654;2023-04-25T10:34:40;11.0;47.9
79356;SHT31;68825;51.978;5.654;2023-04-25T10:37:10;10.9;49.1
79356;SHT31;68825;51.978;5.654;2023-04-25T10:39:41;10.9;48.6
79356;SHT31;68825;51.978;5.654;2023-04-25T10:42:12;10.9;49.2
79356;SHT31;68825;51.978;5.654;2023-04-25T10:44:40;10.9;49.3
79356;SHT31;68825;51.978;5.654;2023-04-25T10:47:21;10.9;49.8
79356;SHT31;68825;51.978;5.654;2023-04-25T10:49:54;11.0;47.6
79356;SHT31;68825;51.978;5.654;2023-04-25T10:52:27;11.0;49.2
79356;SHT31;68825;51.978;5.654;2023-04-25T10:54:57;11.1;47.1
79356;SHT31;68825;51.978;5.654;2023-04-25T10:57:41;11.1;47.6
79356;SHT31;68825;51.978;5.654;2023-04-25T11:00:14;11.1;45.8
79356;SHT31;68825;51.978;5.654;2023-04-25T11:02:45;11.1;45.3
79356;SHT31;68825;51.978;5.654;2023-04-25T11:05:31;11.2;45.3
79356;SHT31;68825;51.978;5.654;2023-04-25T11:08:01;11.2;46.1
79356;SHT31;68825;51.978;5.654;2023-04-25T11:10:32;11.2;46.5
79356;SHT31;68825;51.978;5.654;2023-04-25T11:13:01;11.2;45.4
79356;SHT31;68825;51.978;5.654;2023-04-25T11:15:30;11.3;45.3
79356;SHT31;68825;51.978;5.654;2023-04-25T11:17:59;11.3;45.5
79356;SHT31;68825;51.978;5.654;2023-04-25T11:20:28;11.3;45.0
79356;SHT31;68825;51.978;5.654;2023-04-25T11:22:58;11.4;43.6
79356;SHT31;68825;51.978;5.654;2023-04-25T11:25:28;11.4;44.7
79356;SHT31;68825;51.978;5.654;2023-04-25T11:27:58;11.5;45.2
79356;SHT31;68825;51.978;5.654;2023-04-25T11:30:28;11.6;44.3
79356;SHT31;68825;51.978;5.654;2023-04-25T11:32:57;11.7;44.6
79356;SHT31;68825;51.978;5.654;2023-04-25T11:35:26;11.8;43.6
79356;SHT31;68825;51.978;5.654;2023-04-25T11:37:55;11.9;43.8
79356;SHT31;68825;51.978;5.654;2023-04-25T11:40:24;11.9;43.4
79356;SHT31;68825;51.978;5.654;2023-04-25T11:42:54;11.9;42.8
79356;SHT31;68825;51.978;5.654;2023-04-25T11:45:23;12.0;43.7
79356;SHT31;68825;51.978;5.654;2023-04-25T11:47:53;12.0;43.9
79356;SHT31;68825;51.978;5.654;2023-04-25T11:50:23;12.0;43.2
79356;SHT31;68825;51.978;5.654;2023-04-25T11:52:56;12.1;45.6
79356;SHT31;68825;51.978;5.654;2023-04-25T11:55:25;12.1;47.4
79356;SHT31;68825;51.978;5.654;2023-04-25T11:57:54;12.0;48.4
79356;SHT31;68825;51.978;5.654;2023-04-25T12:00:23;11.8;49.1
79356;SHT31;68825;51.978;5.654;2023-04-25T12:02:55;11.6;48.8
79356;SHT31;68825;51.978;5.654;2023-04-25T12:05:27;11.4;51.0
79356;SHT31;68825;51.978;5.654;2023-04-25T12:07:57;11.2;51.6
79356;SHT31;68825;51.978;5.654;2023-04-25T12:10:26;11.1;51.2
79356;SHT31;68825;51.978;5.654;2023-04-25T12:12:54;11.0;51.2
79356;SHT31;68825;51.978;5.654;2023-04-25T12:15:27;11.0;50.8
79356;SHT31;68825;51.978;5.654;2023-04-25T12:17:55;10.9;51.6
79356;SHT31;68825;51.978;5.654;2023-04-25T12:20:25;10.9;51.5
79356;SHT31;68825;51.978;5.654;2023-04-25T12:22:56;10.9;49.8
79356;SHT31;68825;51.978;5.654;2023-04-25T12:25:39;10.9;49.0
79356;SHT31;68825;51.978;5.654;2023-04-25T12:28:12;11.0;49.7
79356;SHT31;68825;51.978;5.654;2023-04-25T12:30:58;11.0;48.2
79356;SHT31;68825;51.978;5.654;2023-04-25T12:33:29;11.1;48.7
79356;SHT31;68825;51.978;5.654;2023-04-25T12:35:59;11.1;47.4
79356;SHT31;68825;51.978;5.654;2023-04-25T12:38:31;11.2;47.2
79356;SHT31;68825;51.978;5.654;2023-04-25T12:41:00;11.3;46.7
79356;SHT31;68825;51.978;5.654;2023-04-25T12:43:31;11.4;47.2
79356;SHT31;68825;51.978;5.654;2023-04-25T12:46:01;11.4;47.6
79356;SHT31;68825;51.978;5.654;2023-04-25T12:48:30;11.5;45.4
79356;SHT31;68825;51.978;5.654;2023-04-25T12:50:58;11.6;47.3
79356;SHT31;68825;51.978;5.654;2023-04-25T12:53:27;11.6;46.2
79356;SHT31;68825;51.978;5.654;2023-04-25T12:55:56;11.7;46.9
79356;SHT31;68825;51.978;5.654;2023-04-25T12:58:25;11.7;46.9
79356;SHT31;68825;51.978;5.654;2023-04-25T13:00:55;11.7;48.1
79356;SHT31;68825;51.978;5.654;2023-04-25T13:03:24;11.7;47.6
79356;SHT31;68825;51.978;5.654;2023-04-25T13:05:52;11.6;49.9
79356;SHT31;68825;51.978;5.654;2023-04-25T13:08:21;11.6;47.7
79356;SHT31;68825;51.978;5.654;2023-04-25T13:10:50;11.6;47.1
79356;SHT31;68825;51.978;5.654;2023-04-25T13:13:18;11.6;48.2
79356;SHT31;68825;51.978;5.654;2023-04-25T13:15:49;11.7;44.2
79356;SHT31;68825;51.978;5.654;2023-04-25T13:18:18;11.8;45.1
79356;SHT31;68825;51.978;5.654;2023-04-25T13:20:47;11.8;44.9
79356;SHT31;68825;51.978;5.654;2023-04-25T13:23:16;11.9;44.4
79356;SHT31;68825;51.978;5.654;2023-04-25T13:25:44;12.0;45.3
79356;SHT31;68825;51.978;5.654;2023-04-25T13:28:14;12.1;45.1
79356;SHT31;68825;51.978;5.654;2023-04-25T13:30:43;12.2;46.4
79356;SHT31;68825;51.978;5.654;2023-04-25T13:33:13;12.3;43.6
79356;SHT31;68825;51.978;5.654;2023-04-25T13:35:42;12.4;43.0
79356;SHT31;68825;51.978;5.654;2023-04-25T13:38:13;12.5;43.5
79356;SHT31;68825;51.978;5.654;2023-04-25T13:40:43;12.5;42.0
79356;SHT31;68825;51.978;5.654;2023-04-25T13:43:12;12.5;41.2
79356;SHT31;68825;51.978;5.654;2023-04-25T13:45:41;12.5;41.8
79356;SHT31;68825;51.978;5.654;2023-04-25T13:48:10;12.5;42.4
79356;SHT31;68825;51.978;5.654;2023-04-25T13:50:38;12.5;44.7
79356;SHT31;68825;51.978;5.654;2023-04-25T13:53:07;12.5;44.0
79356;SHT31;68825;51.978;5.654;2023-04-25T13:55:36;12.6;42.2
79356;SHT31;68825;51.978;5.654;2023-04-25T13:58:06;12.6;42.0
79356;SHT31;68825;51.978;5.654;2023-04-25T14:00:38;12.6;42.9
79356;SHT31;68825;51.978;5.654;2023-04-25T14:03:09;12.5;43.9
79356;SHT31;68825;51.978;5.654;2023-04-25T14:05:38;12.4;44.0
79356;SHT31;68825;51.978;5.654;2023-04-25T14:08:09;12.2;44.4
79356;SHT31;68825;51.978;5.654;2023-04-25T14:10:38;12.1;45.4
79356;SHT31;68825;51.978;5.654;2023-04-25T14:13:10;12.0;44.8
79356;SHT31;68825;51.978;5.654;2023-04-25T14:15:39;11.9;45.5
79356;SHT31;68825;51.978;5.654;2023-04-25T14:18:07;11.8;45.2
79356;SHT31;68825;51.978;5.654;2023-04-25T14:20:38;11.8;46.5
79356;SHT31;68825;51.978;5.654;2023-04-25T14:23:07;11.8;45.2
79356;SHT31;68825;51.978;5.654;2023-04-25T14:25:36;11.8;45.0
79356;SHT31;68825;51.978;5.654;2023-04-25T14:28:05;11.8;45.5
79356;SHT31;68825;51.978;5.654;2023-04-25T14:30:34;11.9;44.9
79356;SHT31;68825;51.978;5.654;2023-04-25T14:33:03;11.8;44.3
79356;SHT31;68825;51.978;5.654;2023-04-25T14:35:31;11.8;43.9
79356;SHT31;68825;51.978;5.654;2023-04-25T14:38:00;11.8;44.5
79356;SHT31;68825;51.978;5.654;2023-04-25T14:40:29;11.8;44.0
79356;SHT31;68825;51.978;5.654;2023-04-25T14:42:59;11.8;44.4
79356;SHT31;68825;51.978;5.654;2023-04-25T14:45:28;11.7;44.5
79356;SHT31;68825;51.978;5.654;2023-04-25T14:47:56;11.7;44.9
79356;SHT31;68825;51.978;5.654;2023-04-25T14:50:27;11.7;45.7
79356;SHT31;68825;51.978;5.654;2023-04-25T14:52:56;11.8;44.6
79356;SHT31;68825;51.978;5.654;2023-04-25T14:55:27;11.8;44.7
79356;SHT31;68825;51.978;5.654;2023-04-25T14:57:56;11.8;44.5
79356;SHT31;68825;51.978;5.654;2023-04-25T15:00:25;11.9;43.6
79356;SHT31;68825;51.978;5.654;2023-04-25T15:02:53;11.9;44.0
79356;SHT31;68825;51.978;5.654;2023-04-25T15:05:22;11.9;42.8
79356;SHT31;68825;51.978;5.654;2023-04-25T15:07:50;11.9;43.5
79356;SHT31;68825;51.978;5.654;2023-04-25T15:10:19;11.9;42.3
79356;SHT31;68825;51.978;5.654;2023-04-25T15:12:48;12.0;43.5
79356;SHT31;68825;51.978;5.654;2023-04-25T15:15:17;12.0;43.2
79356;SHT31;68825;51.978;5.654;2023-04-25T15:17:46;12.0;42.8
79356;SHT31;68825;51.978;5.654;2023-04-25T15:20:14;12.0;43.2
79356;SHT31;68825;51.978;5.654;2023-04-25T15:22:44;12.0;41.8
79356;SHT31;68825;51.978;5.654;2023-04-25T15:25:16;12.0;44.9
79356;SHT31;68825;51.978;5.654;2023-04-25T15:27:46;12.0;45.4
79356;SHT31;68825;51.978;5.654;2023-04-25T15:30:18;12.0;45.5
79356;SHT31;68825;51.978;5.654;2023-04-25T15:32:47;12.0;47.3
79356;SHT31;68825;51.978;5.654;2023-04-25T15:35:16;12.0;46.1
79356;SHT31;68825;51.978;5.654;2023-04-25T15:37:45;11.9;45.9
79356;SHT31;68825;51.978;5.654;2023-04-25T15:40:15;11.9;46.8
79356;SHT31;68825;51.978;5.654;2023-04-25T15:42:46;11.8;46.3
79356;SHT31;68825;51.978;5.654;2023-04-25T15:45:18;11.8;45.2
79356;SHT31;68825;51.978;5.654;2023-04-25T15:47:47;11.8;43.3
79356;SHT31;68825;51.978;5.654;2023-04-25T15:50:16;11.7;42.9
79356;SHT31;68825;51.978;5.654;2023-04-25T15:52:49;11.7;43.3
79356;SHT31;68825;51.978;5.654;2023-04-25T15:55:19;11.6;44.1
79356;SHT31;68825;51.978;5.654;2023-04-25T15:57:51;11.5;44.4
79356;SHT31;68825;51.978;5.654;2023-04-25T16:00:20;11.5;44.3
79356;SHT31;68825;51.978;5.654;2023-04-25T16:02:49;11.4;44.5
79356;SHT31;68825;51.978;5.654;2023-04-25T16:05:18;11.4;45.0
79356;SHT31;68825;51.978;5.654;2023-04-25T16:07:47;11.3;45.2
79356;SHT31;68825;51.978;5.654;2023-04-25T16:10:19;11.3;45.4
79356;SHT31;68825;51.978;5.654;2023-04-25T16:12:48;11.2;46.3
79356;SHT31;68825;51.978;5.654;2023-04-25T16:15:17;11.2;44.6
79356;SHT31;68825;51.978;5.654;2023-04-25T16:17:46;11.2;44.7
79356;SHT31;68825;51.978;5.654;2023-04-25T16:20:15;11.1;44.8
79356;SHT31;68825;51.978;5.654;2023-04-25T16:22:44;11.1;45.2
79356;SHT31;68825;51.978;5.654;2023-04-25T16:25:13;11.0;45.2